createdAt,value
2023-03-08T08:07:35.583Z,13.52
2023-03-08T08:10:03.225Z,12.40
2023-03-08T08:12:30.598Z,12.48
2023-03-08T08:14:59.871Z,12.25
2023-03-08T08:17:27.254Z,13.40
2023-03-08T08:19:54.554Z,12.07
2023-03-08T08:22:22.033Z,12.13
2023-03-08T08:24:49.384Z,13.13
2023-03-08T08:27:16.658Z,13.15
2023-03-08T08:29:46.242Z,11.50
2023-03-08T08:32:13.716Z,11.10
2023-03-08T08:34:41.038Z,10.88
2023-03-08T08:37:08.386Z,11.20
2023-03-08T08:39:35.813Z,11.68
2023-03-08T08:42:03.648Z,10.93
2023-03-08T08:44:30.991Z,11.32
2023-03-08T08:46:58.321Z,10.57
2023-03-08T08:49:25.676Z,11.55
2023-03-08T08:51:53.406Z,12.52
2023-03-08T08:54:20.796Z,12.35
2023-03-08T08:56:48.179Z,10.52
2023-03-08T08:59:16.417Z,10.68
2023-03-08T09:01:44.089Z,11.02
2023-03-08T09:04:16.902Z,11.00
2023-03-08T09:06:44.546Z,11.50
2023-03-08T09:09:11.955Z,9.88
2023-03-08T09:11:53.378Z,10.48
2023-03-08T09:14:21.845Z,11.13
2023-03-08T09:16:49.348Z,9.80
2023-03-08T09:19:16.741Z,10.02
2023-03-08T09:21:44.094Z,10.68
2023-03-08T09:24:13.278Z,10.32
2023-03-08T09:26:40.577Z,10.63
2023-03-08T09:29:08.122Z,11.77
2023-03-08T09:31:38.588Z,10.50
2023-03-08T09:34:09.340Z,10.85
2023-03-08T09:36:40.921Z,9.68
2023-03-08T09:39:13.086Z,10.55
2023-03-08T09:42:03.769Z,8.32
2023-03-08T09:47:46.713Z,9.30
2023-03-08T09:50:51.063Z,9.30
2023-03-08T09:53:46.761Z,9.15
2023-03-08T09:56:42.190Z,9.13
2023-03-08T09:59:43.320Z,10.30
2023-03-08T10:02:46.494Z,10.15
2023-03-08T10:05:44.609Z,9.63
2023-03-08T10:08:31.449Z,10.27
2023-03-08T10:11:09.149Z,9.23
2023-03-08T10:13:43.461Z,9.68
2023-03-08T10:16:35.474Z,9.35
2023-03-08T10:20:02.313Z,10.27
2023-03-08T10:22:42.325Z,10.70
2023-03-08T10:25:34.107Z,9.98
2023-03-08T10:28:11.474Z,12.48
2023-03-08T10:31:04.357Z,13.57
2023-03-08T10:33:36.667Z,10.18
2023-03-08T10:36:25.480Z,10.35
2023-03-08T10:39:11.413Z,10.65
2023-03-08T10:41:51.413Z,4.18
2023-03-08T10:44:52.714Z,4.80
2023-03-08T10:47:33.573Z,6.72
2023-03-08T10:50:18.019Z,2.47
2023-03-08T10:52:51.240Z,0.80
2023-03-08T10:55:32.030Z,0.70
2023-03-08T10:58:03.051Z,0.30
2023-03-08T11:00:42.321Z,0.30
2023-03-08T11:03:21.453Z,0.30
2023-03-08T11:05:58.771Z,0.40
2023-03-08T11:08:53.683Z,0.10
2023-03-08T11:11:21.567Z,0.20
2023-03-08T11:13:52.464Z,0.20
2023-03-08T11:16:53.669Z,0.20
2023-03-08T11:20:10.723Z,0.30
2023-03-08T11:23:16.960Z,0.30
2023-03-08T11:27:00.066Z,0.20
2023-03-08T11:30:13.100Z,0.17
2023-03-08T11:33:39.580Z,0.20
2023-03-08T11:36:42.137Z,0.20
2023-03-08T11:39:45.742Z,0.10
2023-03-08T11:43:31.340Z,0.20
2023-03-08T11:46:21.953Z,0.20
2023-03-08T11:52:36.809Z,0.20
2023-03-08T11:56:27.783Z,0.10
2023-03-08T12:02:07.806Z,0.10
2023-03-08T12:04:53.938Z,0.20
2023-03-08T12:08:01.608Z,0.60
2023-03-08T12:10:58.837Z,0.70
2023-03-08T12:13:44.795Z,0.63
2023-03-08T12:17:18.269Z,0.40
2023-03-08T12:19:52.012Z,0.80
2023-03-08T12:23:00.990Z,0.10
2023-03-08T12:25:39.373Z,0.40
2023-03-08T12:28:48.700Z,0.10
2023-03-08T12:31:41.454Z,0.25
2023-03-08T12:34:35.941Z,0.20
2023-03-08T12:37:04.267Z,0.20
2023-03-08T12:39:37.049Z,0.10
2023-03-08T12:42:10.147Z,0.10
2023-03-08T12:44:39.257Z,0.25
2023-03-08T12:47:13.237Z,0.17
2023-03-08T12:49:56.614Z,0.10
2023-03-08T12:52:35.257Z,0.10
2023-03-08T12:55:17.760Z,0.10
2023-03-08T12:57:55.628Z,0.25
2023-03-08T13:00:35.642Z,0.20
2023-03-08T13:03:14.742Z,0.20
2023-03-08T13:05:45.627Z,0.20
2023-03-08T13:08:18.870Z,0.22
2023-03-08T13:11:13.783Z,0.10
2023-03-08T13:14:01.506Z,0.20
2023-03-08T13:16:38.779Z,0.13
2023-03-08T13:19:15.340Z,0.20
2023-03-08T13:22:09.054Z,0.10
2023-03-08T13:25:01.691Z,0.10
2023-03-08T13:27:58.339Z,0.20
2023-03-08T13:30:47.007Z,0.20
2023-03-08T13:33:33.117Z,0.30
2023-03-08T13:36:21.920Z,0.30
2023-03-08T13:39:23.683Z,0.20
2023-03-08T13:41:51.280Z,0.40
2023-03-08T13:44:28.060Z,0.40
2023-03-08T13:47:02.236Z,0.25
2023-03-08T13:49:38.005Z,0.43
2023-03-08T13:52:30.138Z,0.50
2023-03-08T13:55:03.420Z,0.28
2023-03-08T13:57:37.249Z,0.38
2023-03-08T14:00:34.292Z,0.40
2023-03-08T14:03:07.497Z,0.25
2023-03-08T14:05:43.837Z,0.40
2023-03-08T14:08:26.327Z,0.40
2023-03-08T14:11:07.110Z,0.43
2023-03-08T14:13:38.805Z,0.30
2023-03-08T14:16:09.274Z,0.40
2023-03-08T14:18:43.694Z,0.50
2023-03-08T14:21:30.640Z,0.47
2023-03-08T14:24:06.925Z,0.80
2023-03-08T14:26:41.859Z,0.35
2023-03-08T14:29:24.244Z,0.43
2023-03-08T14:32:10.556Z,0.40
2023-03-08T14:34:50.510Z,0.38
2023-03-08T14:37:31.289Z,0.55
2023-03-08T14:40:35.858Z,0.40
2023-03-08T14:43:17.244Z,0.32
2023-03-08T14:46:09.134Z,0.45
2023-03-08T14:48:38.618Z,0.40
2023-03-08T14:51:43.493Z,0.43
2023-03-08T14:54:36.483Z,0.30
2023-03-08T14:57:29.276Z,0.35
2023-03-08T15:00:16.237Z,0.30
2023-03-08T15:02:44.318Z,0.20
2023-03-08T15:05:28.880Z,0.30
2023-03-08T15:07:59.314Z,0.20
2023-03-08T15:10:39.165Z,0.13
2023-03-08T15:13:23.130Z,0.30
2023-03-08T15:15:50.924Z,0.40
2023-03-08T15:18:18.601Z,0.25
2023-03-08T15:20:50.322Z,0.65
2023-03-08T15:23:32.963Z,0.30
2023-03-08T15:26:00.355Z,0.20
2023-03-08T15:28:27.784Z,0.40
2023-03-08T15:30:55.168Z,0.32
2023-03-08T15:33:23.816Z,0.30
2023-03-08T15:35:51.864Z,0.20
2023-03-08T15:38:21.472Z,0.35
2023-03-08T15:40:49.058Z,0.32
2023-03-08T15:43:16.397Z,0.22
2023-03-08T15:45:43.736Z,0.40
2023-03-08T15:48:19.864Z,0.30
2023-03-08T15:50:47.608Z,0.25
2023-03-08T15:53:23.236Z,0.28
2023-03-08T15:55:57.105Z,0.40
2023-03-08T15:58:24.417Z,0.50
2023-03-08T16:00:52.235Z,0.80
2023-03-08T16:03:25.961Z,0.47
2023-03-08T16:05:53.475Z,0.65
2023-03-08T16:08:27.987Z,0.68
2023-03-08T16:10:55.998Z,0.38
2023-03-08T16:13:23.359Z,0.75
2023-03-08T16:15:50.802Z,0.60
2023-03-08T16:18:18.236Z,1.30
2023-03-08T16:20:46.235Z,1.08
2023-03-08T16:23:14.074Z,1.30
2023-03-08T16:25:43.248Z,1.30
2023-03-08T16:28:11.187Z,0.85
2023-03-08T16:30:40.970Z,0.60
2023-03-08T16:33:08.345Z,0.80
2023-03-08T16:35:35.686Z,0.80
2023-03-08T16:38:03.853Z,0.50
2023-03-08T16:40:33.040Z,0.90
2023-03-08T16:43:00.415Z,0.70
2023-03-08T16:45:27.724Z,0.75
2023-03-08T16:47:55.044Z,0.65
2023-03-08T16:50:22.476Z,0.50
2023-03-08T16:52:55.169Z,0.90
2023-03-08T16:55:23.260Z,0.95
2023-03-08T16:57:51.401Z,0.90
2023-03-08T17:00:20.030Z,0.90
2023-03-08T17:02:47.437Z,0.65
2023-03-08T17:05:14.769Z,0.73
2023-03-08T17:07:42.130Z,1.00
2023-03-08T17:10:10.847Z,1.27
2023-03-08T17:12:38.226Z,1.20
2023-03-08T17:15:06.714Z,1.35
2023-03-08T17:17:34.039Z,1.65
2023-03-08T17:20:01.472Z,1.02
2023-03-08T17:22:28.883Z,1.05
2023-03-08T17:24:56.992Z,1.40
2023-03-08T17:27:24.802Z,1.17
2023-03-08T17:29:52.755Z,1.60
2023-03-08T17:32:20.572Z,1.20
2023-03-08T17:34:48.015Z,0.82
2023-03-08T17:37:15.804Z,1.20
2023-03-08T17:39:43.113Z,1.33
2023-03-08T17:42:10.444Z,1.70
2023-03-08T17:44:38.187Z,1.95
2023-03-08T17:47:05.733Z,1.77
2023-03-08T17:49:34.156Z,1.80
2023-03-08T17:52:01.455Z,1.63
2023-03-08T17:54:28.786Z,1.42
2023-03-08T17:56:56.138Z,1.58
2023-03-08T17:59:23.485Z,2.00
2023-03-08T18:01:50.821Z,1.58
2023-03-08T18:04:19.071Z,2.03
2023-03-08T18:06:46.478Z,2.30
2023-03-08T18:09:16.470Z,2.30
2023-03-08T18:11:44.017Z,2.05
2023-03-08T18:14:15.781Z,1.42
2023-03-08T18:16:44.836Z,0.98
2023-03-08T18:19:13.544Z,1.08
2023-03-08T18:21:41.568Z,0.63
2023-03-08T18:24:12.876Z,0.70
2023-03-08T18:26:40.794Z,0.60
2023-03-08T18:29:08.163Z,0.60
2023-03-08T18:31:37.200Z,0.60
